Pecos, TX

1:04 PM CDT on August 24, 2016 (GMT -0500)
Duval Rd | | Change Station

Elev 2680 ft 31.47 °N, 103.60 °W | Updated 11 minutes ago

Light Rain
Light Rain
70.0 °F
Feels Like 70.0 °F
N
0.0
Wind Variable Wind from SSW

Today
High -- | Low -- °F
--% Chance of Precip.
Yesterday
High -- | Low -- °F
Precip. -- in
Pressure 30.16 in
Visibility 10.0 miles
Clouds Scattered Clouds 3000 ft
Mostly Cloudy 3700 ft
Overcast 6000 ft
Dew Point 66 °F
Humidity 88%
Rainfall 0.18 in
Snow Depth Not available.
7:26 AM 8:27 PM
Waning Gibbous, 55% visible
METAR KPEQ 241755Z AUTO 20009KT 10SM -RA SCT030 BKN037 OVC060 21/20 A3016 RMK AO2 LTG DSNT S P0002 60012 T02130195 10237 20180
Pressure 30.16 in
Visibility 10.0 miles
Clouds Scattered Clouds 3000 ft
Mostly Cloudy 3700 ft
Overcast 6000 ft
Dew Point 66 °F
Humidity 88%
Rainfall 0.18 in
Snow Depth Not available.
7:26 AM 8:27 PM
Waning Gibbous, 55% visible
METAR KPEQ 241755Z AUTO 20009KT 10SM -RA SCT030 BKN037 OVC060 21/20 A3016 RMK AO2 LTG DSNT S P0002 60012 T02130195 10237 20180

10-Day Weather Forecast

Almanac

Astronomy

Aug. 24, 2016 Rise Set
Actual Time
Civil Twilight
Nautical Twilight
Astronomical Twilight
Moon
Length of Visible Light
Length of Day
Tomorrow will be .
, % of the Moon is Illuminated

Today's Extremes

State Highs State Lows

Community

WunderPhotos

Upload Photos

1,934,662 photos uploaded!

WunderBlog® & News

Nearby

Air Quality

  Air Quality AQ Index Pollutant
Not available.

Snow Depth

Station Depth Elevation

Earthquake Activity

City Distance Mag. Time & Date
Minimum magnitude displayed is 2.5.

Coastal Water Temperatures

Place Temperature

Stations

Nearby Weather Stations

Station Location Temp. Windchill Dew Point Humidity Wind Precip. Elev Updated Type
                   

Watches & Warnings

There are currently no watches in effect.